^^
Grace C. Lehan Memorial Weather Station Historical Data
Daily Summary for January 17, 2021 Units:  Metric    English   Both
Daily Weekly Monthly Yearly
  High: Low: Average:
Temperature: 26.1 °C 10.6 °C 20.8 °C
Dew Point: 12.4 °C 6.6 °C 9 °C
Humidity: 83% 31.8% 49%
Wind Speed: 9km/h 0km/h 1.4km/h
Wind Gust: 24.1km/h - -
Wind- - WNW
Pressure: 1014.8 hPa 1012.1 hPa -
Precipitation: 0 mm    
 
 
Tabular Data for January 17, 2021
Time Temperature Dew Point Pressure Wind Wind Speed Wind Gust Humidity Rainfall Rate (Hourly) solar
00:09 16.2 °C 7 °C 1012.4 hPa NW 1.9 km/h 9.7 km/h 54.6% 0 mm 0 W/m2
00:14 16.1 °C 6.8 °C 1012.4 hPa NW 0.2 km/h 9.7 km/h 54% 0 mm 0 W/m2
00:19 16.1 °C 6.8 °C 1012.4 hPa NW 1.4 km/h 11.3 km/h 54% 0 mm 0 W/m2
00:24 16.1 °C 6.8 °C 1012.4 hPa NW 2.7 km/h 17.7 km/h 54% 0 mm 0 W/m2
00:29 16.1 °C 6.8 °C 1012.4 hPa WNW 2.1 km/h 17.7 km/h 54% 0 mm 0 W/m2
00:30 16.1 °C 6.8 °C 1012.4 hPa NW 1.6 km/h 17.7 km/h 54% 0 mm 0 W/m2
01:00 15.9 °C 6.9 °C 1012.4 hPa Calm   19.3 km/h 55% 0 mm 0 W/m2
01:30 15.2 °C 7.3 °C 1012.4 hPa Calm     59% 0 mm 0 W/m2
02:30 14.3 °C 6.6 °C 1012.4 hPa Calm   1.6 km/h 60% 0 mm 0 W/m2
03:00 13.8 °C 6.7 °C 1012.4 hPa Calm     62% 0 mm 0 W/m2
03:30 13.2 °C 7.2 °C 1012.4 hPa Calm     67% 0 mm 0 W/m2
04:04 12.2 °C 7.3 °C 1012.1 hPa Calm     72% 0 mm 0 W/m2
04:09 12.1 °C 7.3 °C 1012.1 hPa Calm     72.4% 0 mm 0 W/m2
04:14 12 °C 7.3 °C 1012.1 hPa Calm   1.6 km/h 73% 0 mm 0 W/m2
04:19 11.8 °C 7.4 °C 1012.1 hPa Calm   1.6 km/h 74% 0 mm 0 W/m2
04:24 11.8 °C 7.3 °C 1012.4 hPa Calm   1.6 km/h 74% 0 mm 0 W/m2
04:29 11.7 °C 7.2 °C 1012.4 hPa Calm   1.6 km/h 74% 0 mm 0 W/m2
04:34 11.6 °C 7.1 °C 1012.4 hPa Calm   1.6 km/h 74% 0 mm 0 W/m2
04:39 11.6 °C 7.2 °C 1012.4 hPa Calm     74.6% 0 mm 0 W/m2
04:44 11.4 °C 7.3 °C 1012.4 hPa Calm     75.5% 0 mm 0 W/m2
04:49 11.4 °C 7.3 °C 1012.4 hPa Calm     76% 0 mm 0 W/m2
04:54 11.3 °C 7.2 °C 1012.4 hPa Calm     76% 0 mm 0 W/m2
04:59 11.2 °C 7.2 °C 1012.4 hPa Calm     76% 0 mm 0 W/m2
05:04 11.2 °C 7.2 °C 1012.4 hPa Calm     76.6% 0 mm 0 W/m2
05:09 11.1 °C 7.3 °C 1012.4 hPa Calm     77.4% 0 mm 0 W/m2
05:14 10.9 °C 7.3 °C 1012.8 hPa Calm     78.2% 0 mm 0 W/m2
05:19 10.8 °C 7.5 °C 1012.8 hPa Calm     79.7% 0 mm 0 W/m2
05:24 10.8 °C 7.5 °C 1012.8 hPa Calm     80.2% 0 mm 0 W/m2
05:29 10.7 °C 7.6 °C 1012.8 hPa Calm     81% 0 mm 5 W/m2
05:34 10.7 °C 7.6 °C 1012.8 hPa Calm     81% 0 mm 7 W/m2
05:39 10.7 °C 7.6 °C 1012.8 hPa Calm     81% 0 mm 9 W/m2
05:44 10.6 °C 7.5 °C 1012.8 hPa Calm     81.1% 0 mm 11 W/m2
05:49 10.6 °C 7.5 °C 1012.8 hPa Calm     81% 0 mm 14 W/m2
05:54 10.7 °C 7.7 °C 1012.8 hPa Calm     81.7% 0 mm 18 W/m2
05:59 10.7 °C 7.6 °C 1013.1 hPa Calm     81.2% 0 mm 18 W/m2
06:04 10.7 °C 7.8 °C 1013.1 hPa Calm     82% 0 mm 19 W/m2
06:09 10.8 °C 8.1 °C 1013.1 hPa North 0.3 km/h 3.2 km/h 83% 0 mm 19 W/m2
06:14 10.9 °C 8 °C 1013.1 hPa Calm   3.2 km/h 82.2% 0 mm 21 W/m2
06:19 11 °C 7.9 °C 1013.1 hPa Calm   3.2 km/h 81.4% 0 mm 21 W/m2
06:24 11.2 °C 8 °C 1013.1 hPa Calm   3.2 km/h 80.8% 0 mm 26 W/m2
06:29 11.4 °C 8.1 °C 1013.1 hPa Calm   3.2 km/h 80% 0 mm 35 W/m2
06:34 11.6 °C 8.1 °C 1013.1 hPa Calm   3.2 km/h 79% 0 mm 46 W/m2
06:39 11.9 °C 8.3 °C 1013.1 hPa Calm     78.5% 0 mm 49 W/m2
06:44 12.2 °C 8.5 °C 1013.1 hPa Calm     78% 0 mm 60 W/m2
06:49 12.7 °C 8.8 °C 1013.1 hPa Calm     77% 0 mm 69 W/m2
06:54 13.3 °C 9.1 °C 1013.1 hPa Calm     75.3% 0 mm 70 W/m2
06:59 14.1 °C 9.2 °C 1013.1 hPa Calm     72.3% 0 mm 72 W/m2
07:04 14.8 °C 9.6 °C 1013.4 hPa Calm     70.8% 0 mm 74 W/m2
07:09 15.6 °C 10.1 °C 1013.4 hPa Calm     69.4% 0 mm 76 W/m2
07:14 16.3 °C 10.1 °C 1013.4 hPa Calm     66.8% 0 mm 76 W/m2
07:19 16.9 °C 10.2 °C 1013.4 hPa Calm     64.6% 0 mm 77 W/m2
07:24 17.4 °C 10.3 °C 1013.4 hPa Calm     63.2% 0 mm 308 W/m2
07:29 17.8 °C 10.2 °C 1013.4 hPa Calm     61% 0 mm 357 W/m2
07:34 18.2 °C 10.3 °C 1013.4 hPa Calm     59.8% 0 mm 373 W/m2
07:39 18.6 °C 10.5 °C 1013.4 hPa Calm     59.4% 0 mm 392 W/m2
07:44 18.9 °C 10.6 °C 1013.4 hPa Calm     58.7% 0 mm 415 W/m2
07:49 19.1 °C 10.6 °C 1013.4 hPa Calm     57.6% 0 mm 432 W/m2
07:54 19.3 °C 10.3 °C 1013.8 hPa Calm     55.9% 0 mm 450 W/m2
07:59 19.6 °C 10.3 °C 1013.8 hPa Calm     55.1% 0 mm 466 W/m2
08:04 19.6 °C 10.3 °C 1013.4 hPa Calm     55% 0 mm 480 W/m2
08:09 19.7 °C 10.6 °C 1013.8 hPa Calm   1.6 km/h 55.6% 0 mm 497 W/m2
08:14 20 °C 9.9 °C 1013.4 hPa NNW 1.1 km/h 8 km/h 52.1% 0 mm 517 W/m2
08:19 20.3 °C 9.7 °C 1013.4 hPa NNW 1.1 km/h 8 km/h 50.5% 0 mm 533 W/m2
08:24 20.6 °C 10.3 °C 1013.8 hPa NW 1.6 km/h 8 km/h 51.4% 0 mm 550 W/m2
08:29 20.8 °C 9.8 °C 1013.8 hPa WNW 2.7 km/h 9.7 km/h 49.4% 0 mm 566 W/m2
08:34 20.9 °C 9.9 °C 1013.8 hPa WNW 3.2 km/h 9.7 km/h 49.4% 0 mm 580 W/m2
08:39 21.1 °C 10.6 °C 1013.8 hPa WNW 0.3 km/h 8 km/h 51.2% 0 mm 596 W/m2
08:44 21.2 °C 10.4 °C 1013.8 hPa WNW 1 km/h 8 km/h 50.1% 0 mm 612 W/m2
08:49 21.4 °C 10.9 °C 1013.8 hPa WNW 0.2 km/h 8 km/h 51.4% 0 mm 628 W/m2
08:54 21.5 °C 10.8 °C 1013.8 hPa NW 2.1 km/h 9.7 km/h 50.4% 0 mm 643 W/m2
08:59 21.6 °C 10.8 °C 1013.8 hPa NNW 0.8 km/h 9.7 km/h 50.1% 0 mm 656 W/m2
09:04 21.6 °C 10.8 °C 1014.1 hPa NNW 0.5 km/h 9.7 km/h 50.2% 0 mm 666 W/m2
09:09 21.7 °C 10.9 °C 1014.1 hPa North 1.1 km/h 6.4 km/h 50.6% 0 mm 684 W/m2
09:14 21.8 °C 11.4 °C 1014.1 hPa North 0.6 km/h 6.4 km/h 51.5% 0 mm 701 W/m2
09:19 21.8 °C 11 °C 1014.1 hPa NW 2.1 km/h 8 km/h 50.2% 0 mm 714 W/m2
09:24 21.8 °C 10.8 °C 1014.1 hPa WNW 1.1 km/h 8 km/h 49.4% 0 mm 726 W/m2
09:29 22.1 °C 11.7 °C 1014.1 hPa WNW 1.1 km/h 8 km/h 51.7% 0 mm 744 W/m2
09:34 22.4 °C 11.8 °C 1013.8 hPa WNW 0.6 km/h 8 km/h 51.2% 0 mm 759 W/m2
09:39 22.7 °C 11.8 °C 1014.1 hPa WNW 2.1 km/h 9.7 km/h 50.2% 0 mm 765 W/m2
09:44 22.8 °C 11.3 °C 1014.1 hPa WNW 1.6 km/h 9.7 km/h 48.2% 0 mm 779 W/m2
09:49 22.9 °C 11.9 °C 1014.1 hPa WNW 0.6 km/h 9.7 km/h 49.9% 0 mm 793 W/m2
09:54 23.2 °C 12.2 °C 1013.8 hPa WNW 1.6 km/h 9.7 km/h 50.1% 0 mm 809 W/m2
09:59 23.6 °C 12.4 °C 1014.1 hPa WNW 1.4 km/h 9.7 km/h 49.6% 0 mm 814 W/m2
10:04 23.8 °C 11.6 °C 1014.1 hPa WNW 3.1 km/h 11.3 km/h 46.3% 0 mm 831 W/m2
10:09 23.7 °C 11.6 °C 1013.8 hPa WSW 2.3 km/h 11.3 km/h 46.5% 0 mm 842 W/m2
10:14 23.8 °C 11.9 °C 1013.8 hPa WNW 2.6 km/h 14.5 km/h 47.4% 0 mm 856 W/m2
10:19 24 °C 11.9 °C 1013.8 hPa WNW 4 km/h 14.5 km/h 46.6% 0 mm 861 W/m2
10:24 24.2 °C 11.9 °C 1013.8 hPa West 2.1 km/h 14.5 km/h 46.1% 0 mm 870 W/m2
10:29 24.3 °C 11.7 °C 1013.8 hPa WNW 2.6 km/h 14.5 km/h 45.3% 0 mm 875 W/m2
10:34 24.4 °C 11.2 °C 1013.8 hPa WNW 4.7 km/h 20.9 km/h 43.6% 0 mm 888 W/m2
10:39 24.4 °C 11.9 °C 1013.4 hPa WNW 1.9 km/h 20.9 km/h 45.6% 0 mm 900 W/m2
10:44 24.6 °C 10.6 °C 1013.8 hPa North 0.8 km/h 20.9 km/h 41.5% 0 mm 940 W/m2
10:49 24.7 °C 10.8 °C 1013.4 hPa Calm   20.9 km/h 41.7% 0 mm 962 W/m2
10:54 24.6 °C 10.5 °C 1013.4 hPa North 0.2 km/h 20.9 km/h 41% 0 mm 972 W/m2
10:59 24.4 °C 10.7 °C 1013.4 hPa ENE 2.3 km/h 20.9 km/h 42.1% 0 mm 940 W/m2
11:04 24.3 °C 9.3 °C 1013.4 hPa NW 3.2 km/h 20.9 km/h 38.9% 0 mm 953 W/m2
11:09 24.4 °C 8.1 °C 1013.4 hPa WNW 6.1 km/h 24.1 km/h 35.4% 0 mm 953 W/m2
11:14 24.4 °C 7 °C 1013.4 hPa WNW 9 km/h 24.1 km/h 32.8% 0 mm 956 W/m2
11:19 24.4 °C 8 °C 1013.4 hPa West 5.6 km/h 24.1 km/h 35.1% 0 mm 962 W/m2
11:24 24.5 °C 8.7 °C 1013.4 hPa WNW 6.9 km/h 24.1 km/h 36.5% 0 mm 962 W/m2
11:29 24.6 °C 9.2 °C 1013.4 hPa West 1.4 km/h 24.1 km/h 37.7% 0 mm 969 W/m2
11:34 24.8 °C 9.2 °C 1013.4 hPa WNW 5 km/h 24.1 km/h 37.1% 0 mm 977 W/m2
11:39 24.8 °C 8.7 °C 1013.4 hPa WNW 6 km/h 19.3 km/h 36% 0 mm 997 W/m2
11:44 24.7 °C 8.8 °C 1013.1 hPa West 7.6 km/h 20.9 km/h 36.6% 0 mm 1002 W/m2
11:49 24.8 °C 8.9 °C 1013.1 hPa WNW 4.3 km/h 20.9 km/h 36.4% 0 mm 995 W/m2
11:54 24.9 °C 8.1 °C 1013.4 hPa West 3.9 km/h 20.9 km/h 34.4% 0 mm 993 W/m2
11:59 24.9 °C 8.1 °C 1013.4 hPa West 3.5 km/h 20.9 km/h 34.4% 0 mm 997 W/m2
12:00 24.9 °C 8.8 °C 1013.1 hPa NW 3.2 km/h 20.9 km/h 36% 0 mm 997 W/m2
12:09 25.1 °C 9 °C 1013.1 hPa West 2.1 km/h 11.3 km/h 36.1% 0 mm 1023 W/m2
12:14 25.2 °C 9.5 °C 1013.1 hPa NW 5.1 km/h 16.1 km/h 37.1% 0 mm 1028 W/m2
12:19 25.3 °C 9.6 °C 1013.1 hPa NNW 4 km/h 17.7 km/h 37.1% 0 mm 1016 W/m2
12:24 25.2 °C 8.2 °C 1013.1 hPa ENE 1.3 km/h 17.7 km/h 34% 0 mm 1014 W/m2
12:29 25 °C 8.4 °C 1013.1 hPa NW 1.8 km/h 17.7 km/h 34.9% 0 mm 1011 W/m2
12:34 25 °C 8.4 °C 1013.1 hPa WSW 3.1 km/h 17.7 km/h 34.9% 0 mm 1055 W/m2
12:39 24.9 °C 8.9 °C 1013.1 hPa West 1.1 km/h 17.7 km/h 36.3% 0 mm 1088 W/m2
12:44 25.1 °C 8.9 °C 1013.1 hPa WSW 3.7 km/h 17.7 km/h 35.9% 0 mm 1041 W/m2
12:49 25.3 °C 9.5 °C 1013.1 hPa NW 1.8 km/h 17.7 km/h 36.8% 0 mm 1041 W/m2
12:54 25.6 °C 8.6 °C 1013.1 hPa WNW 2.7 km/h 17.7 km/h 34.1% 0 mm 1035 W/m2
12:59 25.7 °C 9.1 °C 1013.1 hPa West 2.7 km/h 20.9 km/h 34.9% 0 mm 1056 W/m2
13:04 25.4 °C 9.1 °C 1013.1 hPa NW 4.3 km/h 20.9 km/h 35.5% 0 mm 1028 W/m2
13:09 25.3 °C 9.2 °C 1013.1 hPa WNW 3.1 km/h 16.1 km/h 35.9% 0 mm 1025 W/m2
13:14 25.4 °C 9.4 °C 1013.1 hPa West 1.3 km/h 16.1 km/h 36.5% 0 mm 1018 W/m2
13:19 25.5 °C 9.1 °C 1012.8 hPa WSW 3.4 km/h 16.1 km/h 35.4% 0 mm 1020 W/m2
13:24 25.6 °C 9.2 °C 1012.8 hPa WNW 5.8 km/h 16.1 km/h 35.4% 0 mm 1020 W/m2
13:29 25.6 °C 9.4 °C 1012.8 hPa WNW 2.4 km/h 16.1 km/h 36.1% 0 mm 1018 W/m2
13:34 25.7 °C 9.9 °C 1012.8 hPa West 4.8 km/h 17.7 km/h 37.2% 0 mm 1018 W/m2
13:39 25.7 °C 9.6 °C 1012.8 hPa WNW 3.9 km/h 17.7 km/h 36.2% 0 mm 1016 W/m2
13:44 25.8 °C 9.1 °C 1012.8 hPa West 2.7 km/h 17.7 km/h 34.7% 0 mm 1011 W/m2
13:49 25.8 °C 10.4 °C 1012.8 hPa WNW 1.3 km/h 17.7 km/h 38% 0 mm 1005 W/m2
13:54 26 °C 9.6 °C 1012.4 hPa NW 1.8 km/h 17.7 km/h 35.4% 0 mm 1004 W/m2
13:59 25.9 °C 9.1 °C 1012.8 hPa WNW 5.8 km/h 17.7 km/h 34.5% 0 mm 998 W/m2
14:04 25.7 °C 8.8 °C 1012.8 hPa NW 6.8 km/h 20.9 km/h 34.3% 0 mm 997 W/m2
14:09 25.6 °C 8.9 °C 1012.4 hPa WSW 2.9 km/h 20.9 km/h 34.8% 0 mm 991 W/m2
14:14 25.6 °C 9.9 °C 1012.4 hPa NW 4.2 km/h 20.9 km/h 37.3% 0 mm 984 W/m2
14:19 25.7 °C 9.8 °C 1012.4 hPa West 5.1 km/h 20.9 km/h 36.7% 0 mm 977 W/m2
14:24 25.7 °C 9.5 °C 1012.4 hPa West 1.9 km/h 20.9 km/h 36% 0 mm 976 W/m2
14:29 25.8 °C 10.6 °C 1012.4 hPa WNW 2.3 km/h 20.9 km/h 38.4% 0 mm 979 W/m2
14:34 26 °C 9.8 °C 1012.4 hPa West 4.2 km/h 20.9 km/h 36.2% 0 mm 967 W/m2
14:39 25.8 °C 9.4 °C 1012.4 hPa WNW 5 km/h 20.9 km/h 35.4% 0 mm 954 W/m2
14:44 25.7 °C 9.2 °C 1012.4 hPa WNW 6 km/h 20.9 km/h 35.3% 0 mm 946 W/m2
14:49 25.7 °C 8.9 °C 1012.4 hPa NW 0.3 km/h 20.9 km/h 34.6% 0 mm 939 W/m2
14:54 25.6 °C 8.3 °C 1012.1 hPa NW 0.2 km/h 20.9 km/h 33.3% 0 mm 935 W/m2
14:59 25.5 °C 9.1 °C 1012.1 hPa WNW 2.7 km/h 20.9 km/h 35.5% 0 mm 925 W/m2
15:04 25.6 °C 9.5 °C 1012.1 hPa WNW 4.2 km/h 20.9 km/h 36.1% 0 mm 918 W/m2
15:09 25.7 °C 8.8 °C 1012.1 hPa WNW 4.2 km/h 16.1 km/h 34.2% 0 mm 912 W/m2
15:14 25.8 °C 9.4 °C 1012.1 hPa WNW 2.3 km/h 16.1 km/h 35.5% 0 mm 904 W/m2
15:19 26 °C 9.1 °C 1012.1 hPa WNW 2.1 km/h 16.1 km/h 34.3% 0 mm 889 W/m2
15:24 26.1 °C 9.4 °C 1012.1 hPa WNW 3.1 km/h 17.7 km/h 34.9% 0 mm 879 W/m2
15:29 26.1 °C 8.8 °C 1012.1 hPa WNW 5.3 km/h 17.7 km/h 33.5% 0 mm 867 W/m2
15:34 26 °C 8.4 °C 1012.1 hPa NW 3.4 km/h 17.7 km/h 32.9% 0 mm 854 W/m2
15:39 26 °C 8.7 °C 1012.1 hPa NW 2.1 km/h 9.7 km/h 33.4% 0 mm 846 W/m2
15:44 26.1 °C 9.1 °C 1012.1 hPa NW 3.5 km/h 14.5 km/h 34.2% 0 mm 835 W/m2
15:49 26.1 °C 7.9 °C 1012.1 hPa WNW 2.3 km/h 14.5 km/h 31.8% 0 mm 821 W/m2
15:54 26 °C 8.8 °C 1012.1 hPa WNW 1.9 km/h 14.5 km/h 33.8% 0 mm 810 W/m2
16:04 26.1 °C 9 °C 1012.1 hPa Calm     34% 0 mm 772 W/m2
16:09 26.1 °C 9.3 °C 1012.1 hPa NW 2.4 km/h 11.3 km/h 34.8% 0 mm 773 W/m2
16:14 26 °C 8.2 °C 1012.1 hPa North 1.8 km/h 14.5 km/h 32.3% 0 mm 763 W/m2
16:19 25.8 °C 8.2 °C 1012.1 hPa NW 0.5 km/h 14.5 km/h 32.7% 0 mm 47 W/m2
16:24 25.6 °C 7.8 °C 1012.1 hPa West 3.5 km/h 14.5 km/h 32.2% 0 mm 46 W/m2
16:29 25.6 °C 8.3 °C 1012.1 hPa West 1.4 km/h 14.5 km/h 33.6% 0 mm 44 W/m2
16:34 25.5 °C 8.2 °C 1012.1 hPa WSW 1.8 km/h 14.5 km/h 33.4% 0 mm 44 W/m2
16:39 25.4 °C 7.7 °C 1012.1 hPa WSW 0.8 km/h 8 km/h 32.4% 0 mm 44 W/m2
16:44 25.4 °C 8.9 °C 1012.1 hPa West 1.4 km/h 8 km/h 35.1% 0 mm 42 W/m2
16:49 25.4 °C 9.7 °C 1012.1 hPa WNW 1.1 km/h 8 km/h 37% 0 mm 42 W/m2
16:54 25.3 °C 9.2 °C 1012.1 hPa NW 2.3 km/h 17.7 km/h 36% 0 mm 42 W/m2
16:59 25.3 °C 9.6 °C 1012.1 hPa West 3.1 km/h 17.7 km/h 37% 0 mm 42 W/m2
17:04 25.3 °C 9.3 °C 1012.1 hPa NW 2.3 km/h 17.7 km/h 36.5% 0 mm 40 W/m2
17:09 25.3 °C 9.5 °C 1012.1 hPa West 2.7 km/h 14.5 km/h 36.9% 0 mm 40 W/m2
17:14 25.3 °C 9.1 °C 1012.1 hPa West 2.6 km/h 14.5 km/h 35.8% 0 mm 51 W/m2
17:19 25.2 °C 9.1 °C 1012.1 hPa West 0.6 km/h 14.5 km/h 36.1% 0 mm 65 W/m2
17:24 25.1 °C 9.3 °C 1012.1 hPa WNW 2.6 km/h 14.5 km/h 36.8% 0 mm 74 W/m2
17:29 25.1 °C 9.1 °C 1012.1 hPa West 2.6 km/h 14.5 km/h 36.3% 0 mm 84 W/m2
17:34 25 °C 9.6 °C 1012.1 hPa West 2.7 km/h 14.5 km/h 37.6% 0 mm 81 W/m2
17:39 25.1 °C 9.8 °C 1012.1 hPa WNW 5.3 km/h 17.7 km/h 38.1% 0 mm 83 W/m2
17:44 25.2 °C 9.4 °C 1012.1 hPa WSW 3.2 km/h 17.7 km/h 37.1% 0 mm 77 W/m2
17:49 25.3 °C 10.2 °C 1012.1 hPa West 0.5 km/h 17.7 km/h 38.8% 0 mm 53 W/m2
17:54 25.3 °C 10.1 °C 1012.1 hPa WNW 3.1 km/h 17.7 km/h 38.1% 0 mm 42 W/m2
17:59 25.3 °C 9.1 °C 1012.1 hPa West 1.9 km/h 17.7 km/h 35.8% 0 mm 40 W/m2
18:04 25.3 °C 8.9 °C 1012.4 hPa West 5.6 km/h 17.7 km/h 35.6% 0 mm 39 W/m2
18:09 25.1 °C 9.2 °C 1012.4 hPa West 3.1 km/h 16.1 km/h 36.4% 0 mm 37 W/m2
18:14 25 °C 8.8 °C 1012.4 hPa WNW 1.9 km/h 16.1 km/h 35.7% 0 mm 35 W/m2
18:19 24.9 °C 8.6 °C 1012.4 hPa WNW 4.7 km/h 16.1 km/h 35.4% 0 mm 33 W/m2
18:24 24.8 °C 8.6 °C 1012.4 hPa WNW 1 km/h 16.1 km/h 35.5% 0 mm 33 W/m2
18:29 24.8 °C 8.7 °C 1012.4 hPa WNW 0.8 km/h 16.1 km/h 35.9% 0 mm 33 W/m2
18:34 24.8 °C 8.4 °C 1012.4 hPa WNW 1.8 km/h 16.1 km/h 35.2% 0 mm 32 W/m2
18:39 24.8 °C 8.2 °C 1012.4 hPa WNW 3.1 km/h 11.3 km/h 34.7% 0 mm 32 W/m2
18:44 24.7 °C 8.3 °C 1012.4 hPa WNW 3.7 km/h 14.5 km/h 35.3% 0 mm 32 W/m2
18:49 24.6 °C 8.3 °C 1012.4 hPa WNW 3.4 km/h 14.5 km/h 35.4% 0 mm 30 W/m2
18:54 24.4 °C 7.9 °C 1012.4 hPa WNW 5 km/h 16.1 km/h 34.8% 0 mm 28 W/m2
18:59 24.3 °C 7.4 °C 1012.8 hPa WNW 4.2 km/h 16.1 km/h 33.8% 0 mm 28 W/m2
19:04 24.2 °C 7.6 °C 1012.8 hPa West 4.2 km/h 16.1 km/h 34.6% 0 mm 28 W/m2
19:09 24.1 °C 7.8 °C 1012.4 hPa WNW 1 km/h 11.3 km/h 35.3% 0 mm 26 W/m2
19:14 24 °C 8.1 °C 1012.8 hPa WNW 2.7 km/h 11.3 km/h 36% 0 mm 26 W/m2
19:19 23.9 °C 7.7 °C 1012.8 hPa WNW 1.1 km/h 11.3 km/h 35.3% 0 mm 25 W/m2
19:24 23.8 °C 7.8 °C 1012.8 hPa NW 1.4 km/h 11.3 km/h 35.9% 0 mm 25 W/m2
19:29 23.7 °C 7.5 °C 1012.8 hPa NW 2.6 km/h 11.3 km/h 35.3% 0 mm 23 W/m2
19:34 23.7 °C 7.7 °C 1012.8 hPa NW 0.3 km/h 11.3 km/h 35.9% 0 mm 19 W/m2
19:39 23.6 °C 7.8 °C 1012.8 hPa Calm   1.6 km/h 36.3% 0 mm 19 W/m2
19:44 23.4 °C 7.9 °C 1013.1 hPa Calm   1.6 km/h 37% 0 mm 16 W/m2
19:49 23.3 °C 7.8 °C 1012.8 hPa Calm   1.6 km/h 37% 0 mm 16 W/m2
19:54 23.2 °C 8 °C 1013.1 hPa Calm   1.6 km/h 37.6% 0 mm 16 W/m2
19:58 23.1 °C 8.1 °C 1013.1 hPa Calm   1.6 km/h 38% 0 mm 14 W/m2
20:00 23.1 °C 8 °C 1012.8 hPa Calm   1.6 km/h 38% 0 mm 11 W/m2
20:09 22.8 °C 8.1 °C 1013.1 hPa Calm     38.7% 0 mm 11 W/m2
20:14 22.7 °C 8.2 °C 1013.1 hPa Calm     39.4% 0 mm 7 W/m2
20:19 22.5 °C 8.3 °C 1013.1 hPa Calm     40.3% 0 mm 0 W/m2
20:24 22.3 °C 8.4 °C 1013.1 hPa Calm     41% 0 mm 0 W/m2
20:29 22.1 °C 8.2 °C 1013.1 hPa Calm     41% 0 mm 0 W/m2
20:34 21.9 °C 8.3 °C 1013.1 hPa Calm     41.9% 0 mm 0 W/m2
20:39 21.7 °C 8.6 °C 1013.1 hPa Calm     43% 0 mm 0 W/m2
20:44 21.4 °C 8.6 °C 1013.1 hPa Calm     43.7% 0 mm 0 W/m2
20:49 21.3 °C 8.7 °C 1013.4 hPa Calm     44.3% 0 mm 0 W/m2
20:54 21.1 °C 9 °C 1013.4 hPa Calm     45.8% 0 mm 0 W/m2
20:59 20.9 °C 9.2 °C 1013.4 hPa Calm     47% 0 mm 0 W/m2
21:04 20.7 °C 9.2 °C 1013.4 hPa Calm     47.6% 0 mm 0 W/m2
21:09 20.5 °C 9.5 °C 1013.4 hPa Calm     49.3% 0 mm 0 W/m2
21:14 20.3 °C 9.7 °C 1013.8 hPa Calm     50.7% 0 mm 0 W/m2
21:19 20.1 °C 9.6 °C 1013.8 hPa Calm     51% 0 mm 0 W/m2
21:24 19.8 °C 9.4 °C 1013.8 hPa Calm     51% 0 mm 0 W/m2
21:29 19.6 °C 9 °C 1013.8 hPa Calm     50.3% 0 mm 0 W/m2
21:34 19.4 °C 9.1 °C 1013.8 hPa Calm     51.3% 0 mm 0 W/m2
21:39 19.2 °C 9.1 °C 1014.1 hPa Calm     51.9% 0 mm 0 W/m2
21:44 18.9 °C 8.8 °C 1014.1 hPa Calm     51.8% 0 mm 0 W/m2
21:49 18.8 °C 9.1 °C 1014.1 hPa Calm     53.5% 0 mm 0 W/m2
21:54 18.6 °C 9.2 °C 1014.1 hPa Calm     54.3% 0 mm 0 W/m2
21:59 18.4 °C 9.4 °C 1014.1 hPa Calm     55.6% 0 mm 0 W/m2
22:04 18.2 °C 9.6 °C 1014.1 hPa Calm     56.9% 0 mm 0 W/m2
22:09 18.1 °C 9.9 °C 1014.1 hPa Calm     59% 0 mm 0 W/m2
22:14 18 °C 9.8 °C 1014.1 hPa Calm     59% 0 mm 0 W/m2
22:19 17.8 °C 9.6 °C 1014.4 hPa Calm     58.5% 0 mm 0 W/m2
22:24 17.7 °C 9.4 °C 1014.4 hPa NW 0.2 km/h 3.2 km/h 58.2% 0 mm 0 W/m2
22:29 17.6 °C 9.2 °C 1014.4 hPa Calm   3.2 km/h 58% 0 mm 0 W/m2
22:34 17.5 °C 9 °C 1014.4 hPa Calm   3.2 km/h 57.5% 0 mm 0 W/m2
22:39 17.4 °C 8.8 °C 1014.4 hPa Calm     57% 0 mm 0 W/m2
22:44 17.4 °C 8.9 °C 1014.4 hPa Calm     57.5% 0 mm 0 W/m2
22:49 17.3 °C 8.7 °C 1014.4 hPa Calm     57% 0 mm 0 W/m2
22:54 17.3 °C 8.8 °C 1014.4 hPa Calm     57.6% 0 mm 0 W/m2
22:59 17.3 °C 8.9 °C 1014.4 hPa Calm     58% 0 mm 0 W/m2
23:04 17.2 °C 9.1 °C 1014.4 hPa Calm     58.7% 0 mm 0 W/m2
23:09 17.2 °C 9.1 °C 1014.4 hPa Calm     59% 0 mm 0 W/m2
23:14 17.1 °C 9.1 °C 1014.4 hPa Calm     59% 0 mm 0 W/m2
23:19 17.1 °C 9 °C 1014.4 hPa Calm     59% 0 mm 0 W/m2
23:24 17 °C 8.9 °C 1014.4 hPa Calm     59% 0 mm 0 W/m2
23:29 17 °C 9.2 °C 1014.4 hPa Calm     59.9% 0 mm 0 W/m2
23:34 17 °C 9.2 °C 1014.4 hPa Calm     60% 0 mm 0 W/m2
23:39 16.9 °C 9.2 °C 1014.4 hPa Calm     60.2% 0 mm 0 W/m2
23:44 16.9 °C 9.4 °C 1014.4 hPa NW 0.2 km/h 1.6 km/h 61% 0 mm 0 W/m2
23:49 16.9 °C 9.1 °C 1014.4 hPa Calm   1.6 km/h 60.2% 0 mm 0 W/m2
23:54 16.8 °C 9.1 °C 1014.8 hPa Calm   1.6 km/h 60% 0 mm 0 W/m2
23:59 16.8 °C 9 °C 1014.8 hPa Calm   1.6 km/h 60% 0 mm 0 W/m2
Hartford County Weather
Compliments of Weather Underground - 2 mb